Terminal Aerodrome Forecast
Issued by NWS Denver/Boulder, CO

Home | Current Version | Previous Version | Text Only | Print | Product List | Glossary Off
Versions: 1 2 3 4 5 6 7 8 9 10 11 12 13 14 15 16 17 18 19 20 21 22 23 24 25 26 27 28 29 30 31 32 33 34 35 36 37 38 39 40 41 42 43 44 45 46 47 48 49 50

000
FTUS45 KBOU 201310 AAA
TAFDEN
TAF AMD
KDEN 201310Z 2013/2118 VRB05KT P6SM VCSH SCT050 BKN070 OVC110
      TEMPO 2014/2018 5SM -SHSN BKN035 OVC050
     FM201900 29006KT P6SM SCT050 BKN080
     FM202100 33007KT P6SM FEW060 SCT080 BKN110
     FM210000 07007KT P6SM SCT090 SCT120
     FM210200 14009KT P6SM FEW120 SCT200
     FM210400 18007KT P6SM SCT200=

USA.gov is the U.S. government's official web portal to all federal, state and local government web resources and services.